Date,TemperatureHighF,TemperatureAvgF,TemperatureLowF,DewpointHighF,DewpointAvgF,DewpointLowF,HumidityHigh,HumidityAvg,HumidityLow,PressureMaxIn,PressureMinIn,WindSpeedMaxMPH,WindSpeedAvgMPH,GustSpeedMaxMPH,PrecipitationSumIn
2012-1-3,36.8,30.1,16.3,29.3,20.5,8.8,78,67,59,30.21,29.96,23,6,23,0.00
2012-1-4,51.4,35.7,22.9,34.0,27.6,19.4,88,73,48,30.23,30.03,20,3,20,0.00
2012-1-5,58.0,38.3,25.7,37.1,28.6,21.6,86,70,41,30.04,29.72,11,1,11,0.00
2012-1-6,46.9,38.2,30.1,30.9,26.0,20.4,85,62,42,30.02,29.72,25,6,25,0.00
2012-1-7,40.2,28.1,19.7,26.9,21.0,16.0,92,75,57,30.29,30.02,16,2,16,0.00
2012-1-8,43.1,27.2,12.4,29.5,20.7,8.8,89,77,54,30.36,30.19,19,3,19,0.00
2012-1-9,51.8,34.8,25.0,31.7,26.0,21.0,92,72,45,30.19,30.02,13,3,13,0.00
2012-1-10,56.8,36.0,23.5,34.6,27.0,20.1,92,72,42,30.04,29.66,17,2,17,0.00
2012-1-11,36.2,23.9,9.9,33.1,18.2,2.0,92,79,67,30.05,29.63,33,10,33,0.00
2012-1-12,11.8,7.1,3.5,4.4,0.3,-2.7,83,73,67,30.11,30.02,27,10,28,0.00
2012-1-13,20.4,10.1,-1.7,7.3,-0.3,-7.1,80,64,41,30.17,30.02,15,4,15,0.00
2012-1-14,35.7,24.7,15.6,24.7,18.2,7.2,89,77,61,30.14,30.03,22,3,22,0.00
2012-1-16,16.8,14.3,12.0,9.4,8.1,7.2,83,76,72,30.08,29.96,27,11,27,0.00
2012-1-17,12.5,7.1,-1.8,9.6,1.3,-5.8,92,77,67,30.42,30.07,26,7,27,0.00
2012-1-18,10.4,4.4,-1.6,5.5,0.1,-5.0,92,82,80,30.30,30.00,11,4,14,0.00
2012-1-25,28.3,26.1,23.9,27.0,24.3,21.7,95,93,91,30.30,29.89,4,3,9,0.00
2012-1-26,30.1,27.0,23.8,25.9,24.2,22.3,95,89,79,29.92,29.89,2,2,5,0.00
2012-1-27,33.4,26.9,19.3,31.1,22.6,17.1,93,84,69,30.12,29.86,17,7,33,0.02
2012-1-28,33.5,25.1,15.8,23.2,18.2,11.8,85,75,63,30.15,30.07,12,6,22,0.00
2012-1-29,30.2,25.4,17.0,22.0,18.8,11.9,82,76,69,30.22,29.89,8,6,17,0.00
2012-1-30,46.5,33.3,25.1,33.8,26.2,21.0,84,75,61,29.88,29.63,8,2,16,0.00
2012-1-31,38.5,36.6,29.9,33.6,31.0,27.9,92,80,72,30.01,29.64,8,4,15,0.00
2012-2-1,50.7,33.8,22.5,38.6,29.1,20.8,94,84,58,30.19,30.03,10,1,10,0.00
2012-2-2,48.7,33.8,21.3,36.5,28.1,19.1,92,81,57,30.32,30.19,7,1,7,0.01
2012-2-14,33.7,24.8,17.1,29.2,21.6,14.6,91,88,83,29.90,29.77,10,1,10,0.10
2012-2-15,38.7,28.5,15.0,35.5,25.2,12.4,92,87,80,30.16,29.90,13,2,14,0.03
2012-2-16,41.9,29.4,19.9,27.4,21.2,15.8,87,73,37,30.25,30.05,22,4,22,0.00
2012-2-17,35.6,27.8,21.7,25.7,19.6,14.1,92,72,48,30.27,30.01,23,5,23,0.00
2012-2-18,37.9,26.1,13.4,25.0,18.5,9.5,87,73,56,30.32,30.17,15,3,15,0.00
2012-2-19,39.7,28.7,18.3,28.2,22.4,14.9,88,78,58,30.17,30.00,28,7,28,0.00
2012-2-20,35.7,33.7,30.9,34.9,30.0,24.2,97,87,72,30.02,29.65,31,13,31,0.20
2012-2-21,36.7,34.5,29.4,34.6,31.3,24.1,96,88,61,29.76,29.65,30,15,30,0.20
2012-2-28,33.4,32.4,31.1,32.0,30.8,28.9,100,94,91,29.99,29.30,20,1,20,0.00
2012-2-29,33.4,30.6,26.0,32.0,28.4,23.3,95,91,88,29.84,29.18,28,9,28,0.01
2012-3-1,32.2,28.0,23.7,29.1,25.7,22.2,95,91,87,29.86,29.75,16,4,16,0.00
2012-3-2,30.0,26.4,21.3,25.6,22.1,19.2,94,84,73,29.84,29.77,29,7,29,0.00
2012-3-3,25.8,22.0,16.8,20.0,16.9,13.5,87,80,74,30.00,29.83,35,10,35,0.00
2012-3-4,27.9,20.7,14.7,25.5,17.8,12.1,92,88,82,30.22,29.90,19,3,19,0.00
2012-3-5,45.2,30.2,13.2,36.9,25.2,10.6,93,82,68,30.25,29.80,27,5,27,0.01
2012-3-6,65.7,46.2,33.6,51.0,37.5,29.3,86,73,47,29.80,29.52,17,4,17,0.00
2012-3-7,47.4,35.1,26.7,44.6,30.8,21.2,93,84,74,30.14,29.47,24,8,24,0.00
2012-3-8,45.7,33.4,23.6,30.5,23.7,20.0,92,69,45,30.49,30.14,26,7,26,0.00
2012-3-9,47.7,32.6,19.5,34.3,23.4,13.1,82,69,53,30.61,30.12,24,5,24,0.00
2012-3-10,68.0,49.9,35.8,39.5,31.6,25.4,74,51,29,30.12,29.90,26,7,26,0.00
2012-3-11,58.5,47.5,37.9,47.0,36.8,29.4,87,67,50,29.95,29.75,24,7,27,0.00
2012-3-21,61.7,57.1,51.4,54.3,52.9,50.0,95,86,76,29.99,29.97,3,3,10,0.07
2012-3-22,62.5,59.0,56.2,59.4,56.9,54.3,95,93,89,30.00,29.88,14,4,14,0.35
2012-3-23,56.7,53.3,50.6,47.0,45.4,44.1,79,75,66,29.90,29.89,6,0,6,0.02
2012-3-24,73.3,50.8,39.8,51.2,43.4,38.0,94,79,34,29.97,29.90,9,1,9,0.00
2012-10-23,58.4,56.3,54.7,54.6,53.7,52.0,96,91,87,29.77,29.67,6,3,15,0.00
2012-10-24,55.3,48.4,43.4,52.1,43.4,35.3,93,83,68,29.85,29.78,9,6,20,0.01
2012-10-25,39.8,36.0,32.5,35.1,30.9,27.3,92,82,71,30.28,29.84,10,9,20,0.02
2012-10-26,36.2,35.3,34.5,26.4,26.1,25.8,72,69,66,30.45,30.33,7,6,21,0.00
2012-10-27,39.1,30.8,24.6,27.2,23.5,20.5,84,75,62,30.42,30.32,6,3,15,0.00
2012-10-28,47.8,40.7,31.0,32.4,30.8,26.5,83,68,54,30.33,30.20,11,6,21,0.00
2012-10-29,51.8,42.3,38.4,32.8,30.6,28.9,74,64,48,30.24,30.15,13,8,26,0.00
2012-10-30,47.6,40.9,33.6,31.1,28.0,22.9,80,61,39,30.16,30.09,16,4,16,0.00
2012-10-31,58.0,43.5,30.2,36.2,31.5,23.9,88,65,43,30.10,29.97,13,2,13,0.00
2012-11-1,46.4,40.1,31.4,39.0,31.7,24.9,93,73,44,30.08,29.98,28,8,28,0.00
2012-11-2,41.4,35.8,31.0,30.5,27.4,24.8,79,71,59,30.18,30.04,18,7,18,0.00
2012-11-3,46.7,39.0,29.2,37.0,31.9,26.2,89,76,62,30.25,30.17,11,2,11,0.00
2012-11-4,43.1,39.0,36.4,38.6,37.0,35.1,96,92,82,30.21,30.10,16,5,16,0.16
2012-11-5,39.1,36.9,35.4,36.2,34.9,33.3,96,92,88,30.21,29.96,19,5,19,0.02
2012-11-6,48.0,41.7,36.3,37.6,35.5,32.4,94,79,63,30.08,29.87,33,10,33,0.00
2012-11-7,49.1,38.7,29.8,35.8,31.9,27.8,92,78,56,30.17,29.98,19,5,19,0.00
2012-11-8,56.4,43.2,35.9,39.1,34.8,31.1,92,74,48,29.99,29.88,25,9,25,0.00
2012-11-9,53.9,43.9,35.3,44.9,39.4,34.3,96,85,69,29.98,29.73,30,13,30,0.00
2012-11-10,57.6,49.2,34.6,54.5,46.5,32.0,96,90,83,29.73,29.44,26,9,26,0.28
2012-11-11,34.0,23.3,18.5,31.9,17.1,11.3,93,77,62,30.10,29.65,30,13,30,0.01
2012-11-12,30.2,22.2,17.6,17.1,14.5,11.9,84,73,55,30.39,30.10,30,10,30,0.00
2012-11-13,44.4,31.4,17.0,29.0,21.8,13.4,87,69,43,30.39,30.27,19,2,19,0.00
2012-11-14,50.9,38.1,26.7,32.7,29.6,24.2,91,73,47,30.30,30.14,14,2,14,0.00
2012-11-15,48.1,36.6,24.4,34.8,28.1,17.8,90,72,46,30.51,30.14,20,5,20,0.00
2012-11-16,46.7,30.6,18.4,31.8,22.7,14.3,86,73,50,30.52,30.28,22,4,22,0.00
2012-11-17,57.2,44.2,34.8,38.8,35.2,31.5,90,72,49,30.29,30.08,32,9,32,0.00